sensor_id;sensor_type;location;lat;lon;timestamp;P1;durP1;ratioP1;P2;durP2;ratioP2
21761;SDS011;11203;50.870;20.682;2023-03-20T00:01:24;190.27;;;94.57;;
21761;SDS011;11203;50.870;20.682;2023-03-20T00:03:54;191.38;;;97.22;;
21761;SDS011;11203;50.870;20.682;2023-03-20T00:06:25;188.65;;;99.07;;
21761;SDS011;11203;50.870;20.682;2023-03-20T00:08:55;202.90;;;99.65;;
21761;SDS011;11203;50.870;20.682;2023-03-20T00:13:58;203.05;;;105.15;;
21761;SDS011;11203;50.870;20.682;2023-03-20T00:16:30;192.18;;;101.25;;
21761;SDS011;11203;50.870;20.682;2023-03-20T00:18:59;220.20;;;111.15;;
21761;SDS011;11203;50.870;20.682;2023-03-20T00:21:25;207.50;;;108.63;;
21761;SDS011;11203;50.870;20.682;2023-03-20T00:23:52;223.68;;;112.32;;
21761;SDS011;11203;50.870;20.682;2023-03-20T00:26:19;228.15;;;113.70;;
21761;SDS011;11203;50.870;20.682;2023-03-20T00:28:57;222.40;;;112.20;;
21761;SDS011;11203;50.870;20.682;2023-03-20T00:31:24;219.00;;;108.07;;
21761;SDS011;11203;50.870;20.682;2023-03-20T00:34:18;217.52;;;110.10;;
21761;SDS011;11203;50.870;20.682;2023-03-20T00:36:48;201.13;;;106.90;;
21761;SDS011;11203;50.870;20.682;2023-03-20T00:39:15;220.43;;;112.68;;
21761;SDS011;11203;50.870;20.682;2023-03-20T00:41:42;216.30;;;110.90;;
21761;SDS011;11203;50.870;20.682;2023-03-20T00:44:31;218.82;;;108.82;;
21761;SDS011;11203;50.870;20.682;2023-03-20T00:47:03;210.98;;;109.63;;
21761;SDS011;11203;50.870;20.682;2023-03-20T00:49:42;203.20;;;107.10;;
21761;SDS011;11203;50.870;20.682;2023-03-20T00:52:10;294.55;;;128.82;;
21761;SDS011;11203;50.870;20.682;2023-03-20T00:54:39;305.08;;;131.98;;
21761;SDS011;11203;50.870;20.682;2023-03-20T00:57:06;399.30;;;156.27;;
21761;SDS011;11203;50.870;20.682;2023-03-20T01:02:38;260.55;;;121.22;;
21761;SDS011;11203;50.870;20.682;2023-03-20T01:05:04;216.50;;;105.40;;
21761;SDS011;11203;50.870;20.682;2023-03-20T01:07:31;201.25;;;102.72;;
21761;SDS011;11203;50.870;20.682;2023-03-20T01:09:57;202.40;;;100.90;;
21761;SDS011;11203;50.870;20.682;2023-03-20T01:12:24;190.10;;;96.30;;
21761;SDS011;11203;50.870;20.682;2023-03-20T01:14:51;195.55;;;102.22;;
21761;SDS011;11203;50.870;20.682;2023-03-20T01:17:21;195.40;;;103.30;;
21761;SDS011;11203;50.870;20.682;2023-03-20T01:19:49;182.05;;;96.55;;
21761;SDS011;11203;50.870;20.682;2023-03-20T01:22:16;183.48;;;96.72;;
21761;SDS011;11203;50.870;20.682;2023-03-20T01:24:42;179.43;;;96.03;;
21761;SDS011;11203;50.870;20.682;2023-03-20T01:27:15;184.48;;;97.07;;
21761;SDS011;11203;50.870;20.682;2023-03-20T01:29:44;189.80;;;99.53;;
21761;SDS011;11203;50.870;20.682;2023-03-20T01:32:11;184.75;;;97.93;;
21761;SDS011;11203;50.870;20.682;2023-03-20T01:34:41;188.60;;;97.30;;
21761;SDS011;11203;50.870;20.682;2023-03-20T01:37:11;186.70;;;100.05;;
21761;SDS011;11203;50.870;20.682;2023-03-20T01:39:49;208.38;;;108.38;;
21761;SDS011;11203;50.870;20.682;2023-03-20T01:42:15;192.60;;;102.03;;
21761;SDS011;11203;50.870;20.682;2023-03-20T01:44:42;186.00;;;98.53;;
21761;SDS011;11203;50.870;20.682;2023-03-20T01:47:16;171.07;;;91.70;;
21761;SDS011;11203;50.870;20.682;2023-03-20T01:52:53;199.60;;;104.07;;
21761;SDS011;11203;50.870;20.682;2023-03-20T01:55:33;188.30;;;99.13;;
21761;SDS011;11203;50.870;20.682;2023-03-20T01:58:02;188.57;;;102.80;;
21761;SDS011;11203;50.870;20.682;2023-03-20T02:00:35;188.75;;;98.95;;
21761;SDS011;11203;50.870;20.682;2023-03-20T02:03:01;185.55;;;99.25;;
21761;SDS011;11203;50.870;20.682;2023-03-20T02:05:30;178.45;;;97.38;;
21761;SDS011;11203;50.870;20.682;2023-03-20T02:10:50;180.75;;;96.68;;
21761;SDS011;11203;50.870;20.682;2023-03-20T02:13:17;174.10;;;95.07;;
21761;SDS011;11203;50.870;20.682;2023-03-20T02:18:36;178.57;;;96.65;;
21761;SDS011;11203;50.870;20.682;2023-03-20T02:49:48;163.30;;;87.47;;
21761;SDS011;11203;50.870;20.682;2023-03-20T02:58:04;160.65;;;88.72;;
21761;SDS011;11203;50.870;20.682;2023-03-20T03:00:44;178.65;;;98.82;;
21761;SDS011;11203;50.870;20.682;2023-03-20T03:03:23;186.55;;;102.30;;
21761;SDS011;11203;50.870;20.682;2023-03-20T03:06:05;171.85;;;94.65;;
21761;SDS011;11203;50.870;20.682;2023-03-20T03:08:43;173.57;;;93.78;;
21761;SDS011;11203;50.870;20.682;2023-03-20T03:11:15;177.90;;;93.97;;
21761;SDS011;11203;50.870;20.682;2023-03-20T03:13:44;176.38;;;95.20;;
21761;SDS011;11203;50.870;20.682;2023-03-20T03:16:21;188.68;;;101.45;;
21761;SDS011;11203;50.870;20.682;2023-03-20T03:19:06;186.75;;;100.13;;
21761;SDS011;11203;50.870;20.682;2023-03-20T03:21:47;177.75;;;98.15;;
21761;SDS011;11203;50.870;20.682;2023-03-20T03:24:26;160.75;;;93.57;;
21761;SDS011;11203;50.870;20.682;2023-03-20T03:26:58;179.52;;;94.00;;
21761;SDS011;11203;50.870;20.682;2023-03-20T03:29:29;178.88;;;94.72;;
21761;SDS011;11203;50.870;20.682;2023-03-20T03:32:01;176.32;;;94.47;;
21761;SDS011;11203;50.870;20.682;2023-03-20T03:34:30;165.68;;;90.78;;
21761;SDS011;11203;50.870;20.682;2023-03-20T03:39:40;163.60;;;92.65;;
21761;SDS011;11203;50.870;20.682;2023-03-20T03:42:29;169.13;;;89.20;;
21761;SDS011;11203;50.870;20.682;2023-03-20T03:45:13;165.73;;;89.38;;
21761;SDS011;11203;50.870;20.682;2023-03-20T03:47:53;158.93;;;89.22;;
21761;SDS011;11203;50.870;20.682;2023-03-20T03:50:29;148.52;;;86.45;;
21761;SDS011;11203;50.870;20.682;2023-03-20T03:53:13;167.25;;;90.15;;
21761;SDS011;11203;50.870;20.682;2023-03-20T03:55:49;157.23;;;83.47;;
21761;SDS011;11203;50.870;20.682;2023-03-20T03:58:29;152.10;;;84.32;;
21761;SDS011;11203;50.870;20.682;2023-03-20T04:00:59;150.50;;;83.35;;
21761;SDS011;11203;50.870;20.682;2023-03-20T04:03:29;157.27;;;84.22;;
21761;SDS011;11203;50.870;20.682;2023-03-20T04:06:00;140.05;;;81.63;;
21761;SDS011;11203;50.870;20.682;2023-03-20T04:08:28;177.32;;;99.57;;
21761;SDS011;11203;50.870;20.682;2023-03-20T04:10:54;164.98;;;96.70;;
21761;SDS011;11203;50.870;20.682;2023-03-20T04:13:20;159.40;;;91.72;;
21761;SDS011;11203;50.870;20.682;2023-03-20T04:15:47;148.48;;;88.25;;
21761;SDS011;11203;50.870;20.682;2023-03-20T04:18:14;132.68;;;76.13;;
21761;SDS011;11203;50.870;20.682;2023-03-20T04:20:43;155.15;;;88.13;;
21761;SDS011;11203;50.870;20.682;2023-03-20T04:23:10;135.93;;;79.95;;
21761;SDS011;11203;50.870;20.682;2023-03-20T04:25:36;144.80;;;82.82;;
21761;SDS011;11203;50.870;20.682;2023-03-20T04:28:02;145.95;;;84.93;;
21761;SDS011;11203;50.870;20.682;2023-03-20T04:30:29;152.90;;;87.05;;
21761;SDS011;11203;50.870;20.682;2023-03-20T04:32:56;165.52;;;92.15;;
21761;SDS011;11203;50.870;20.682;2023-03-20T04:35:22;161.55;;;92.78;;
21761;SDS011;11203;50.870;20.682;2023-03-20T04:37:48;165.27;;;91.25;;
21761;SDS011;11203;50.870;20.682;2023-03-20T04:40:14;166.35;;;92.25;;
21761;SDS011;11203;50.870;20.682;2023-03-20T04:42:40;176.05;;;92.95;;
21761;SDS011;11203;50.870;20.682;2023-03-20T04:45:07;158.00;;;88.80;;
21761;SDS011;11203;50.870;20.682;2023-03-20T04:47:34;152.35;;;87.30;;
21761;SDS011;11203;50.870;20.682;2023-03-20T04:50:00;160.50;;;91.47;;
21761;SDS011;11203;50.870;20.682;2023-03-20T04:52:26;146.35;;;85.20;;
21761;SDS011;11203;50.870;20.682;2023-03-20T04:54:53;157.60;;;86.72;;
21761;SDS011;11203;50.870;20.682;2023-03-20T04:57:18;158.20;;;85.40;;
21761;SDS011;11203;50.870;20.682;2023-03-20T04:59:45;147.57;;;82.60;;
21761;SDS011;11203;50.870;20.682;2023-03-20T05:02:10;155.23;;;86.53;;
21761;SDS011;11203;50.870;20.682;2023-03-20T05:04:41;150.02;;;81.95;;
21761;SDS011;11203;50.870;20.682;2023-03-20T05:07:07;148.65;;;84.00;;
21761;SDS011;11203;50.870;20.682;2023-03-20T05:09:33;145.13;;;81.43;;
21761;SDS011;11203;50.870;20.682;2023-03-20T05:11:59;147.75;;;82.45;;
21761;SDS011;11203;50.870;20.682;2023-03-20T05:14:25;138.38;;;75.78;;
21761;SDS011;11203;50.870;20.682;2023-03-20T05:16:51;139.52;;;78.10;;
21761;SDS011;11203;50.870;20.682;2023-03-20T05:19:18;131.77;;;75.72;;
21761;SDS011;11203;50.870;20.682;2023-03-20T05:21:44;136.48;;;74.90;;
21761;SDS011;11203;50.870;20.682;2023-03-20T05:24:10;130.77;;;75.05;;
21761;SDS011;11203;50.870;20.682;2023-03-20T05:26:36;134.48;;;75.63;;
21761;SDS011;11203;50.870;20.682;2023-03-20T05:29:02;137.40;;;78.22;;
21761;SDS011;11203;50.870;20.682;2023-03-20T05:31:28;146.05;;;81.35;;
21761;SDS011;11203;50.870;20.682;2023-03-20T05:33:55;143.02;;;84.15;;
21761;SDS011;11203;50.870;20.682;2023-03-20T05:36:21;144.38;;;80.20;;
21761;SDS011;11203;50.870;20.682;2023-03-20T05:38:47;138.75;;;81.30;;
21761;SDS011;11203;50.870;20.682;2023-03-20T05:41:13;162.63;;;100.63;;
21761;SDS011;11203;50.870;20.682;2023-03-20T05:43:40;159.90;;;95.93;;
21761;SDS011;11203;50.870;20.682;2023-03-20T05:46:06;159.98;;;93.85;;
21761;SDS011;11203;50.870;20.682;2023-03-20T05:48:32;153.45;;;91.45;;
21761;SDS011;11203;50.870;20.682;2023-03-20T05:51:01;166.52;;;98.85;;
21761;SDS011;11203;50.870;20.682;2023-03-20T05:53:27;153.45;;;95.05;;
21761;SDS011;11203;50.870;20.682;2023-03-20T05:55:53;153.65;;;93.03;;
21761;SDS011;11203;50.870;20.682;2023-03-20T05:58:19;147.40;;;90.80;;
21761;SDS011;11203;50.870;20.682;2023-03-20T06:00:45;145.88;;;89.15;;
21761;SDS011;11203;50.870;20.682;2023-03-20T06:03:11;142.63;;;89.07;;
21761;SDS011;11203;50.870;20.682;2023-03-20T06:05:38;144.10;;;89.10;;
21761;SDS011;11203;50.870;20.682;2023-03-20T06:08:04;147.82;;;91.70;;
21761;SDS011;11203;50.870;20.682;2023-03-20T06:10:30;145.05;;;92.22;;
21761;SDS011;11203;50.870;20.682;2023-03-20T06:12:56;140.57;;;86.38;;
21761;SDS011;11203;50.870;20.682;2023-03-20T06:15:25;140.38;;;84.30;;
21761;SDS011;11203;50.870;20.682;2023-03-20T06:17:53;129.65;;;84.32;;
21761;SDS011;11203;50.870;20.682;2023-03-20T06:20:20;131.32;;;75.80;;
21761;SDS011;11203;50.870;20.682;2023-03-20T06:22:46;123.43;;;72.28;;
21761;SDS011;11203;50.870;20.682;2023-03-20T06:25:12;121.88;;;72.35;;
21761;SDS011;11203;50.870;20.682;2023-03-20T06:27:39;123.60;;;69.90;;
21761;SDS011;11203;50.870;20.682;2023-03-20T06:30:05;122.20;;;71.15;;
21761;SDS011;11203;50.870;20.682;2023-03-20T06:32:32;125.35;;;70.20;;
21761;SDS011;11203;50.870;20.682;2023-03-20T06:34:58;115.00;;;68.63;;
21761;SDS011;11203;50.870;20.682;2023-03-20T06:37:24;126.43;;;73.57;;
21761;SDS011;11203;50.870;20.682;2023-03-20T06:39:50;134.85;;;81.78;;
21761;SDS011;11203;50.870;20.682;2023-03-20T06:42:16;133.40;;;79.13;;
21761;SDS011;11203;50.870;20.682;2023-03-20T06:44:42;135.20;;;79.45;;
21761;SDS011;11203;50.870;20.682;2023-03-20T06:47:10;130.63;;;78.07;;
21761;SDS011;11203;50.870;20.682;2023-03-20T06:49:36;120.07;;;76.05;;
21761;SDS011;11203;50.870;20.682;2023-03-20T06:52:02;117.25;;;71.55;;
21761;SDS011;11203;50.870;20.682;2023-03-20T06:54:29;115.70;;;70.53;;
21761;SDS011;11203;50.870;20.682;2023-03-20T06:56:55;115.13;;;68.82;;
21761;SDS011;11203;50.870;20.682;2023-03-20T06:59:21;101.13;;;61.17;;
21761;SDS011;11203;50.870;20.682;2023-03-20T07:01:48;89.07;;;50.45;;
21761;SDS011;11203;50.870;20.682;2023-03-20T07:04:13;87.45;;;49.97;;
21761;SDS011;11203;50.870;20.682;2023-03-20T07:06:41;95.20;;;54.05;;
21761;SDS011;11203;50.870;20.682;2023-03-20T07:09:07;92.15;;;53.30;;
21761;SDS011;11203;50.870;20.682;2023-03-20T07:11:34;97.22;;;55.78;;
21761;SDS011;11203;50.870;20.682;2023-03-20T07:14:00;100.38;;;55.80;;
21761;SDS011;11203;50.870;20.682;2023-03-20T07:16:26;96.25;;;53.35;;
21761;SDS011;11203;50.870;20.682;2023-03-20T07:18:52;102.32;;;55.28;;
21761;SDS011;11203;50.870;20.682;2023-03-20T07:21:19;97.40;;;55.65;;
21761;SDS011;11203;50.870;20.682;2023-03-20T07:23:47;97.13;;;55.00;;
21761;SDS011;11203;50.870;20.682;2023-03-20T07:26:13;96.57;;;54.75;;
21761;SDS011;11203;50.870;20.682;2023-03-20T07:28:40;89.10;;;53.47;;
21761;SDS011;11203;50.870;20.682;2023-03-20T07:31:09;86.47;;;50.42;;
21761;SDS011;11203;50.870;20.682;2023-03-20T07:33:49;81.18;;;49.67;;
21761;SDS011;11203;50.870;20.682;2023-03-20T07:36:15;79.45;;;46.60;;
21761;SDS011;11203;50.870;20.682;2023-03-20T07:38:42;93.10;;;49.22;;
21761;SDS011;11203;50.870;20.682;2023-03-20T07:41:09;85.88;;;50.13;;
21761;SDS011;11203;50.870;20.682;2023-03-20T07:43:35;81.97;;;48.50;;
21761;SDS011;11203;50.870;20.682;2023-03-20T07:46:02;87.70;;;48.28;;
21761;SDS011;11203;50.870;20.682;2023-03-20T07:48:30;75.30;;;45.20;;
21761;SDS011;11203;50.870;20.682;2023-03-20T07:50:57;78.55;;;44.75;;
21761;SDS011;11203;50.870;20.682;2023-03-20T07:53:23;65.30;;;43.20;;
21761;SDS011;11203;50.870;20.682;2023-03-20T07:55:49;65.38;;;41.13;;
21761;SDS011;11203;50.870;20.682;2023-03-20T07:58:15;50.40;;;27.13;;
21761;SDS011;11203;50.870;20.682;2023-03-20T08:00:42;68.63;;;36.08;;
21761;SDS011;11203;50.870;20.682;2023-03-20T08:03:08;59.30;;;35.60;;
21761;SDS011;11203;50.870;20.682;2023-03-20T08:05:35;57.65;;;34.00;;
21761;SDS011;11203;50.870;20.682;2023-03-20T08:08:01;54.35;;;29.70;;
21761;SDS011;11203;50.870;20.682;2023-03-20T08:10:28;61.55;;;35.97;;
21761;SDS011;11203;50.870;20.682;2023-03-20T08:12:54;68.85;;;37.60;;
21761;SDS011;11203;50.870;20.682;2023-03-20T08:15:20;58.00;;;34.55;;
21761;SDS011;11203;50.870;20.682;2023-03-20T08:17:46;54.28;;;30.85;;
21761;SDS011;11203;50.870;20.682;2023-03-20T08:20:14;56.55;;;37.75;;
21761;SDS011;11203;50.870;20.682;2023-03-20T08:22:42;65.50;;;37.70;;
21761;SDS011;11203;50.870;20.682;2023-03-20T08:25:09;65.15;;;42.22;;
21761;SDS011;11203;50.870;20.682;2023-03-20T08:27:36;62.35;;;41.53;;
21761;SDS011;11203;50.870;20.682;2023-03-20T08:30:03;88.90;;;46.53;;
21761;SDS011;11203;50.870;20.682;2023-03-20T08:32:30;85.35;;;48.28;;
21761;SDS011;11203;50.870;20.682;2023-03-20T08:34:56;65.97;;;41.90;;
21761;SDS011;11203;50.870;20.682;2023-03-20T08:37:22;108.57;;;59.25;;
21761;SDS011;11203;50.870;20.682;2023-03-20T08:39:48;101.05;;;53.78;;
21761;SDS011;11203;50.870;20.682;2023-03-20T08:42:14;63.70;;;35.67;;
21761;SDS011;11203;50.870;20.682;2023-03-20T08:44:40;64.90;;;39.00;;
21761;SDS011;11203;50.870;20.682;2023-03-20T08:47:06;70.85;;;41.97;;
21761;SDS011;11203;50.870;20.682;2023-03-20T08:49:34;69.32;;;42.88;;
21761;SDS011;11203;50.870;20.682;2023-03-20T08:52:01;70.78;;;41.92;;
21761;SDS011;11203;50.870;20.682;2023-03-20T08:54:27;71.50;;;41.55;;
21761;SDS011;11203;50.870;20.682;2023-03-20T08:56:53;71.57;;;39.80;;
21761;SDS011;11203;50.870;20.682;2023-03-20T08:59:20;69.78;;;41.30;;
21761;SDS011;11203;50.870;20.682;2023-03-20T09:01:46;70.18;;;43.45;;
21761;SDS011;11203;50.870;20.682;2023-03-20T09:04:12;63.47;;;34.78;;
21761;SDS011;11203;50.870;20.682;2023-03-20T09:06:39;72.05;;;39.75;;
21761;SDS011;11203;50.870;20.682;2023-03-20T09:09:06;69.95;;;38.95;;
21761;SDS011;11203;50.870;20.682;2023-03-20T09:11:32;60.90;;;36.17;;
21761;SDS011;11203;50.870;20.682;2023-03-20T09:13:58;66.30;;;41.22;;
21761;SDS011;11203;50.870;20.682;2023-03-20T09:16:25;62.05;;;42.63;;
21761;SDS011;11203;50.870;20.682;2023-03-20T09:18:52;71.60;;;38.40;;
21761;SDS011;11203;50.870;20.682;2023-03-20T09:21:18;78.15;;;47.08;;
21761;SDS011;11203;50.870;20.682;2023-03-20T09:23:45;74.25;;;44.33;;
21761;SDS011;11203;50.870;20.682;2023-03-20T09:26:11;99.78;;;51.90;;
21761;SDS011;11203;50.870;20.682;2023-03-20T09:28:37;90.47;;;55.33;;
21761;SDS011;11203;50.870;20.682;2023-03-20T09:31:03;100.65;;;61.17;;
21761;SDS011;11203;50.870;20.682;2023-03-20T09:33:30;76.80;;;51.13;;
21761;SDS011;11203;50.870;20.682;2023-03-20T09:35:56;79.03;;;51.47;;
21761;SDS011;11203;50.870;20.682;2023-03-20T09:38:22;74.07;;;50.90;;
21761;SDS011;11203;50.870;20.682;2023-03-20T09:40:54;77.85;;;51.85;;
21761;SDS011;11203;50.870;20.682;2023-03-20T09:52:27;76.10;;;51.58;;
21761;SDS011;11203;50.870;20.682;2023-03-20T09:55:58;80.10;;;49.65;;
21761;SDS011;11203;50.870;20.682;2023-03-20T09:58:20;75.90;;;51.00;;
21761;SDS011;11203;50.870;20.682;2023-03-20T10:00:50;64.40;;;42.75;;
21761;SDS011;11203;50.870;20.682;2023-03-20T10:03:23;66.93;;;43.28;;
21761;SDS011;11203;50.870;20.682;2023-03-20T10:06:11;63.67;;;43.22;;
21761;SDS011;11203;50.870;20.682;2023-03-20T10:08:41;63.35;;;44.63;;
21761;SDS011;11203;50.870;20.682;2023-03-20T10:14:31;55.60;;;37.78;;
21761;SDS011;11203;50.870;20.682;2023-03-20T10:19:48;52.88;;;36.90;;
21761;SDS011;11203;50.870;20.682;2023-03-20T10:22:23;59.63;;;38.40;;
21761;SDS011;11203;50.870;20.682;2023-03-20T10:25:06;57.13;;;37.88;;
21761;SDS011;11203;50.870;20.682;2023-03-20T10:27:45;53.08;;;35.40;;
21761;SDS011;11203;50.870;20.682;2023-03-20T10:39:05;55.95;;;40.05;;
21761;SDS011;11203;50.870;20.682;2023-03-20T10:41:58;54.55;;;38.60;;
21761;SDS011;11203;50.870;20.682;2023-03-20T10:44:30;61.17;;;41.63;;
21761;SDS011;11203;50.870;20.682;2023-03-20T10:47:02;54.85;;;35.03;;
21761;SDS011;11203;50.870;20.682;2023-03-20T10:49:47;54.58;;;32.05;;
21761;SDS011;11203;50.870;20.682;2023-03-20T10:52:27;55.63;;;38.83;;
21761;SDS011;11203;50.870;20.682;2023-03-20T10:54:59;64.63;;;39.75;;
21761;SDS011;11203;50.870;20.682;2023-03-20T10:57:32;77.47;;;54.20;;
21761;SDS011;11203;50.870;20.682;2023-03-20T11:00:03;73.43;;;49.90;;
21761;SDS011;11203;50.870;20.682;2023-03-20T11:02:35;75.40;;;52.60;;
21761;SDS011;11203;50.870;20.682;2023-03-20T11:05:22;78.07;;;53.33;;
21761;SDS011;11203;50.870;20.682;2023-03-20T11:08:08;69.45;;;49.42;;
21761;SDS011;11203;50.870;20.682;2023-03-20T11:10:38;67.18;;;48.38;;
21761;SDS011;11203;50.870;20.682;2023-03-20T11:13:22;67.10;;;50.03;;
21761;SDS011;11203;50.870;20.682;2023-03-20T11:15:52;54.80;;;39.72;;
21761;SDS011;11203;50.870;20.682;2023-03-20T11:18:19;44.65;;;33.65;;
21761;SDS011;11203;50.870;20.682;2023-03-20T11:20:53;53.50;;;38.35;;
21761;SDS011;11203;50.870;20.682;2023-03-20T11:23:25;60.13;;;39.03;;
21761;SDS011;11203;50.870;20.682;2023-03-20T11:36:39;68.70;;;39.40;;
21761;SDS011;11203;50.870;20.682;2023-03-20T11:39:22;61.60;;;44.80;;
21761;SDS011;11203;50.870;20.682;2023-03-20T11:41:57;52.08;;;37.50;;
21761;SDS011;11203;50.870;20.682;2023-03-20T11:47:11;70.75;;;47.25;;
21761;SDS011;11203;50.870;20.682;2023-03-20T11:49:57;57.28;;;42.05;;
21761;SDS011;11203;50.870;20.682;2023-03-20T11:52:28;55.90;;;38.47;;
21761;SDS011;11203;50.870;20.682;2023-03-20T11:54:59;63.75;;;44.38;;
21761;SDS011;11203;50.870;20.682;2023-03-20T12:02:46;65.30;;;47.00;;
21761;SDS011;11203;50.870;20.682;2023-03-20T12:05:22;25.77;;;14.63;;
21761;SDS011;11203;50.870;20.682;2023-03-20T12:08:02;43.90;;;28.10;;
21761;SDS011;11203;50.870;20.682;2023-03-20T12:10:36;36.53;;;22.75;;
21761;SDS011;11203;50.870;20.682;2023-03-20T12:13:15;40.42;;;26.63;;
21761;SDS011;11203;50.870;20.682;2023-03-20T12:15:53;49.63;;;34.28;;
21761;SDS011;11203;50.870;20.682;2023-03-20T12:23:44;48.78;;;34.33;;
21761;SDS011;11203;50.870;20.682;2023-03-20T12:26:43;42.50;;;29.30;;
21761;SDS011;11203;50.870;20.682;2023-03-20T12:29:51;49.03;;;33.05;;
21761;SDS011;11203;50.870;20.682;2023-03-20T12:32:59;50.35;;;35.38;;
21761;SDS011;11203;50.870;20.682;2023-03-20T12:35:37;50.08;;;33.10;;
21761;SDS011;11203;50.870;20.682;2023-03-20T12:38:43;48.22;;;35.58;;
21761;SDS011;11203;50.870;20.682;2023-03-20T12:53:00;50.85;;;35.13;;
21761;SDS011;11203;50.870;20.682;2023-03-20T12:55:34;47.10;;;33.67;;
21761;SDS011;11203;50.870;20.682;2023-03-20T12:58:17;47.53;;;37.33;;
21761;SDS011;11203;50.870;20.682;2023-03-20T13:06:58;43.78;;;31.75;;
21761;SDS011;11203;50.870;20.682;2023-03-20T13:09:33;51.55;;;35.05;;
21761;SDS011;11203;50.870;20.682;2023-03-20T13:20:56;43.15;;;33.92;;
21761;SDS011;11203;50.870;20.682;2023-03-20T13:38:17;52.00;;;37.55;;
21761;SDS011;11203;50.870;20.682;2023-03-20T13:40:48;46.78;;;36.35;;
21761;SDS011;11203;50.870;20.682;2023-03-20T13:43:47;52.17;;;38.78;;
21761;SDS011;11203;50.870;20.682;2023-03-20T13:46:21;52.15;;;39.03;;
21761;SDS011;11203;50.870;20.682;2023-03-20T13:48:52;50.92;;;38.15;;
21761;SDS011;11203;50.870;20.682;2023-03-20T14:00:26;46.40;;;37.03;;
21761;SDS011;11203;50.870;20.682;2023-03-20T14:05:54;42.80;;;33.13;;
21761;SDS011;11203;50.870;20.682;2023-03-20T14:08:22;39.58;;;31.45;;
21761;SDS011;11203;50.870;20.682;2023-03-20T14:13:41;53.97;;;37.75;;
21761;SDS011;11203;50.870;20.682;2023-03-20T14:16:13;45.40;;;31.80;;
21761;SDS011;11203;50.870;20.682;2023-03-20T14:18:42;51.25;;;37.67;;
21761;SDS011;11203;50.870;20.682;2023-03-20T14:21:12;56.63;;;41.05;;
21761;SDS011;11203;50.870;20.682;2023-03-20T14:23:43;49.80;;;37.05;;
21761;SDS011;11203;50.870;20.682;2023-03-20T14:29:00;50.97;;;39.28;;
21761;SDS011;11203;50.870;20.682;2023-03-20T14:31:39;44.30;;;35.78;;
21761;SDS011;11203;50.870;20.682;2023-03-20T14:53:49;50.50;;;35.65;;
21761;SDS011;11203;50.870;20.682;2023-03-20T14:56:42;43.53;;;35.50;;
21761;SDS011;11203;50.870;20.682;2023-03-20T14:59:09;50.53;;;35.45;;
21761;SDS011;11203;50.870;20.682;2023-03-20T15:04:07;47.78;;;36.03;;
21761;SDS011;11203;50.870;20.682;2023-03-20T15:07:02;44.42;;;33.13;;
21761;SDS011;11203;50.870;20.682;2023-03-20T15:09:44;47.28;;;35.30;;
21761;SDS011;11203;50.870;20.682;2023-03-20T15:12:22;50.45;;;36.47;;
21761;SDS011;11203;50.870;20.682;2023-03-20T15:14:56;47.17;;;36.95;;
21761;SDS011;11203;50.870;20.682;2023-03-20T15:17:38;48.20;;;37.35;;
21761;SDS011;11203;50.870;20.682;2023-03-20T15:22:54;48.25;;;37.65;;
21761;SDS011;11203;50.870;20.682;2023-03-20T15:25:44;46.67;;;35.28;;
21761;SDS011;11203;50.870;20.682;2023-03-20T15:28:16;46.28;;;35.63;;
21761;SDS011;11203;50.870;20.682;2023-03-20T15:30:50;45.13;;;35.30;;
21761;SDS011;11203;50.870;20.682;2023-03-20T15:33:31;44.38;;;35.30;;
21761;SDS011;11203;50.870;20.682;2023-03-20T15:38:35;49.50;;;36.08;;
21761;SDS011;11203;50.870;20.682;2023-03-20T15:41:03;48.10;;;37.60;;
21761;SDS011;11203;50.870;20.682;2023-03-20T15:43:32;47.95;;;36.85;;
21761;SDS011;11203;50.870;20.682;2023-03-20T15:46:03;46.53;;;36.38;;
21761;SDS011;11203;50.870;20.682;2023-03-20T15:48:29;48.15;;;36.58;;
21761;SDS011;11203;50.870;20.682;2023-03-20T15:50:59;52.33;;;37.20;;
21761;SDS011;11203;50.870;20.682;2023-03-20T15:53:40;54.83;;;41.47;;
21761;SDS011;11203;50.870;20.682;2023-03-20T15:56:15;57.15;;;41.97;;
21761;SDS011;11203;50.870;20.682;2023-03-20T15:58:43;54.15;;;41.45;;
21761;SDS011;11203;50.870;20.682;2023-03-20T16:01:16;54.78;;;41.65;;
21761;SDS011;11203;50.870;20.682;2023-03-20T16:03:44;51.38;;;40.28;;
21761;SDS011;11203;50.870;20.682;2023-03-20T16:06:12;57.67;;;42.13;;
21761;SDS011;11203;50.870;20.682;2023-03-20T16:08:41;56.38;;;41.35;;
21761;SDS011;11203;50.870;20.682;2023-03-20T16:11:12;57.60;;;42.50;;
21761;SDS011;11203;50.870;20.682;2023-03-20T16:13:41;59.45;;;44.08;;
21761;SDS011;11203;50.870;20.682;2023-03-20T16:16:15;63.15;;;45.35;;
21761;SDS011;11203;50.870;20.682;2023-03-20T16:18:44;62.28;;;45.75;;
21761;SDS011;11203;50.870;20.682;2023-03-20T16:21:28;62.15;;;46.40;;
21761;SDS011;11203;50.870;20.682;2023-03-20T16:24:04;67.15;;;47.38;;
21761;SDS011;11203;50.870;20.682;2023-03-20T16:26:36;57.58;;;44.28;;
21761;SDS011;11203;50.870;20.682;2023-03-20T16:29:08;63.60;;;44.60;;
21761;SDS011;11203;50.870;20.682;2023-03-20T16:31:40;56.40;;;41.97;;
21761;SDS011;11203;50.870;20.682;2023-03-20T16:34:24;66.13;;;46.78;;
21761;SDS011;11203;50.870;20.682;2023-03-20T16:37:00;59.00;;;35.13;;
21761;SDS011;11203;50.870;20.682;2023-03-20T16:39:31;49.47;;;37.85;;
21761;SDS011;11203;50.870;20.682;2023-03-20T16:44:43;45.67;;;34.08;;
21761;SDS011;11203;50.870;20.682;2023-03-20T16:52:23;45.40;;;33.80;;
21761;SDS011;11203;50.870;20.682;2023-03-20T16:54:52;48.03;;;33.55;;
21761;SDS011;11203;50.870;20.682;2023-03-20T16:57:22;45.65;;;34.20;;
21761;SDS011;11203;50.870;20.682;2023-03-20T16:59:49;43.70;;;34.85;;
21761;SDS011;11203;50.870;20.682;2023-03-20T17:02:29;51.38;;;34.25;;
21761;SDS011;11203;50.870;20.682;2023-03-20T17:05:03;50.80;;;36.63;;
21761;SDS011;11203;50.870;20.682;2023-03-20T17:07:35;50.10;;;38.13;;
21761;SDS011;11203;50.870;20.682;2023-03-20T17:10:16;51.90;;;39.30;;
21761;SDS011;11203;50.870;20.682;2023-03-20T17:12:51;54.70;;;38.22;;
21761;SDS011;11203;50.870;20.682;2023-03-20T17:15:19;46.65;;;35.50;;
21761;SDS011;11203;50.870;20.682;2023-03-20T17:17:48;49.38;;;37.22;;
21761;SDS011;11203;50.870;20.682;2023-03-20T17:20:19;50.95;;;37.55;;
21761;SDS011;11203;50.870;20.682;2023-03-20T17:22:52;49.15;;;37.20;;
21761;SDS011;11203;50.870;20.682;2023-03-20T17:25:19;53.03;;;37.83;;
21761;SDS011;11203;50.870;20.682;2023-03-20T17:27:45;53.40;;;40.20;;
21761;SDS011;11203;50.870;20.682;2023-03-20T17:30:14;55.33;;;42.55;;
21761;SDS011;11203;50.870;20.682;2023-03-20T17:32:45;64.32;;;45.97;;
21761;SDS011;11203;50.870;20.682;2023-03-20T17:35:11;74.00;;;53.03;;
21761;SDS011;11203;50.870;20.682;2023-03-20T17:37:37;76.45;;;56.15;;